Weather at Chino Airport

Public forecast

Using degrees Fahrenheit for public forecast. Weather courtesy of forecast.io.

Current aviation weather report (METAR) for Chino Airport

2024/05/26 15:53 (retrieved 19 minutes ago)

KCNO 261553Z 00000KT 10SM BKN018 OVC028 16/11 A3005 RMK AO2 SLP171 T01610106

Closest aviation forecast (TAF) to Chino Airport

Closest forecast is Ontario International Airport, 5.2 nm (9.6 km) NNE.

2024/05/26 12:24 (retrieved 4 hours ago)

TAF KONT 261123Z 2612/2718 25007KT P6SM OVC014 FM261730 VRB04KT P6SM SCT025 FM262100 25010KT P6SM SKC FM270500 VRB04KT P6SM SKC